createdAt,value
2023-01-12T00:02:16.622Z,98948.45
2023-01-12T00:05:19.353Z,98952.46
2023-01-12T00:08:22.143Z,98957.04
2023-01-12T00:11:27.903Z,98960.35
2023-01-12T00:14:30.764Z,98962.27
2023-01-12T00:17:33.532Z,98958.75
2023-01-12T00:20:36.298Z,98955.92
2023-01-12T00:23:45.433Z,98956.69
2023-01-12T00:26:49.477Z,98958.25
2023-01-12T00:29:52.264Z,98962.89
2023-01-12T00:32:55.025Z,98966.48
2023-01-12T00:36:01.591Z,98967.25
2023-01-12T00:39:04.929Z,98966.70
2023-01-12T00:42:26.604Z,98971.94
2023-01-12T00:45:30.193Z,98976.50
2023-01-12T00:48:33.324Z,98975.42
2023-01-12T00:51:36.067Z,98969.51
2023-01-12T00:54:39.395Z,98972.67
2023-01-12T00:57:42.243Z,98975.35
2023-01-12T01:00:44.973Z,98975.79
2023-01-12T01:03:47.750Z,98980.52
2023-01-12T01:06:50.526Z,98982.95
2023-01-12T01:09:53.249Z,98984.59
2023-01-12T01:12:55.994Z,98985.73
2023-01-12T01:16:00.814Z,98982.65
2023-01-12T01:19:07.384Z,98989.55
2023-01-12T01:22:10.143Z,98988.30
2023-01-12T01:25:13.437Z,98987.48
2023-01-12T01:28:17.605Z,98989.07
2023-01-12T01:31:23.579Z,98990.48
2023-01-12T01:34:26.490Z,98994.20
2023-01-12T01:37:29.283Z,98997.94
2023-01-12T01:40:33.515Z,99001.29
2023-01-12T01:44:05.228Z,98997.55
2023-01-12T01:47:27.786Z,98997.52
2023-01-12T01:50:35.884Z,99005.34
2023-01-12T01:53:41.871Z,99008.65
2023-01-12T01:56:45.412Z,99009.54
2023-01-12T01:59:53.853Z,99020.13
2023-01-12T02:02:57.831Z,99021.89
2023-01-12T02:06:00.890Z,99024.13
2023-01-12T02:09:31.036Z,99023.91
2023-01-12T02:12:52.439Z,99023.81
2023-01-12T02:16:20.666Z,99018.16
2023-01-12T02:20:00.412Z,99015.83
2023-01-12T02:23:05.905Z,99016.25
2023-01-12T02:26:27.113Z,99010.33
2023-01-12T02:29:32.556Z,99011.96
2023-01-12T02:33:00.549Z,99021.80
2023-01-12T02:36:49.573Z,99024.48
2023-01-12T02:40:14.195Z,99028.17
2023-01-12T02:43:26.967Z,99029.27
2023-01-12T02:46:32.371Z,99030.95
2023-01-12T02:49:44.847Z,99034.83
2023-01-12T02:52:57.184Z,99036.88
2023-01-12T02:56:03.508Z,99033.41
2023-01-12T02:59:12.431Z,99040.47
2023-01-12T03:02:18.914Z,99041.52
2023-01-12T03:05:21.706Z,99041.61
2023-01-12T03:08:29.468Z,99039.77
2023-01-12T03:11:32.259Z,99036.84
2023-01-12T03:14:38.828Z,99039.11
2023-01-12T03:17:57.018Z,99041.58
2023-01-12T03:21:08.887Z,99038.70
2023-01-12T03:24:19.879Z,99038.04
2023-01-12T03:27:29.222Z,99042.34
2023-01-12T03:30:58.966Z,99043.91
2023-01-12T03:34:02.000Z,99044.52
2023-01-12T03:37:32.870Z,99038.75
2023-01-12T03:40:39.725Z,99040.38
2023-01-12T03:43:51.121Z,99046.05
2023-01-12T03:47:00.788Z,99047.14
2023-01-12T03:50:09.768Z,99056.92
2023-01-12T03:53:15.956Z,99059.76
2023-01-12T03:56:23.141Z,99065.20
2023-01-12T03:59:26.482Z,99067.86
2023-01-12T04:02:29.253Z,99069.60
2023-01-12T04:05:32.059Z,99065.73
2023-01-12T04:08:35.541Z,99065.58
2023-01-12T04:11:57.084Z,99059.80
2023-01-12T04:14:59.917Z,99055.67
2023-01-12T04:18:02.676Z,99058.16
2023-01-12T04:21:05.768Z,99062.36
2023-01-12T04:24:08.647Z,99065.88
2023-01-12T04:27:11.725Z,99070.91
2023-01-12T04:30:17.043Z,99074.50
2023-01-12T04:33:19.840Z,99073.80
2023-01-12T04:36:22.626Z,99073.85
2023-01-12T04:39:25.389Z,99069.88
2023-01-12T04:42:46.904Z,99069.98
2023-01-12T04:45:49.642Z,99077.55
2023-01-12T04:48:52.402Z,99082.94
2023-01-12T04:51:55.215Z,99079.41
2023-01-12T04:54:57.920Z,99085.99
2023-01-12T04:58:00.711Z,99091.52
2023-01-12T05:01:15.608Z,99089.09
2023-01-12T05:04:18.519Z,99095.07
2023-01-12T05:07:21.550Z,99093.38
2023-01-12T05:10:24.266Z,99086.80
2023-01-12T05:13:31.207Z,99087.91
2023-01-12T05:16:33.891Z,99088.67
2023-01-12T05:19:36.674Z,99091.79
2023-01-12T05:22:39.619Z,99094.55
2023-01-12T05:25:42.595Z,99097.01
2023-01-12T05:28:49.035Z,99095.75
2023-01-12T05:31:51.779Z,99092.59
2023-01-12T05:34:54.568Z,99094.83
2023-01-12T05:37:57.704Z,99096.68
2023-01-12T05:41:02.341Z,99105.88
2023-01-12T05:44:05.359Z,99103.16
2023-01-12T05:47:08.288Z,99100.48
2023-01-12T05:50:11.593Z,99103.31
2023-01-12T05:53:14.338Z,99105.55
2023-01-12T05:56:21.720Z,99102.05
2023-01-12T05:59:24.463Z,99103.27
2023-01-12T06:02:28.694Z,99102.77
2023-01-12T06:05:31.560Z,99105.00
2023-01-12T06:08:34.313Z,99104.06
2023-01-12T06:11:55.558Z,99110.48
2023-01-12T06:14:58.470Z,99115.84
2023-01-12T06:18:01.327Z,99114.92
2023-01-12T06:21:05.836Z,99117.58
2023-01-12T06:24:09.480Z,99120.63
2023-01-12T06:27:12.255Z,99119.32
2023-01-12T06:30:15.097Z,99121.73
2023-01-12T06:33:17.841Z,99124.60
2023-01-12T06:36:20.639Z,99126.55
2023-01-12T06:39:23.414Z,99132.59
2023-01-12T06:42:28.998Z,99132.92
2023-01-12T06:45:32.042Z,99138.42
2023-01-12T06:48:39.121Z,99139.07
2023-01-12T06:51:43.299Z,99143.10
2023-01-12T06:54:46.281Z,99143.23
2023-01-12T06:57:49.055Z,99145.98
2023-01-12T07:00:52.030Z,99149.41
2023-01-12T07:03:54.867Z,99147.62
2023-01-12T07:06:57.679Z,99146.75
2023-01-12T07:10:00.583Z,99152.35
2023-01-12T07:13:06.681Z,99158.67
2023-01-12T07:16:10.097Z,99159.81
2023-01-12T07:19:13.011Z,99160.41
2023-01-12T07:22:15.795Z,99151.00
2023-01-12T07:25:18.551Z,99151.77
2023-01-12T07:28:21.447Z,99153.61
2023-01-12T07:31:24.772Z,99156.89
2023-01-12T07:34:27.670Z,99161.23
2023-01-12T07:37:30.470Z,99161.29
2023-01-12T07:40:33.723Z,99157.65
2023-01-12T07:43:36.424Z,99160.69
2023-01-12T07:46:39.964Z,99157.95
2023-01-12T07:49:43.612Z,99152.96
2023-01-12T07:52:46.389Z,99157.58
2023-01-12T07:55:49.299Z,99158.49
2023-01-12T07:58:52.106Z,99156.37
2023-01-12T08:01:55.538Z,99164.38
2023-01-12T08:04:58.280Z,99161.81
2023-01-12T08:08:03.405Z,99166.98
2023-01-12T08:11:09.242Z,99173.03
2023-01-12T08:14:33.236Z,99174.95
2023-01-12T08:17:44.223Z,99173.40
2023-01-12T08:20:47.523Z,99163.48
2023-01-12T08:23:53.759Z,99164.55
2023-01-12T08:27:00.237Z,99168.77
2023-01-12T08:30:08.260Z,99171.20
2023-01-12T08:33:11.188Z,99170.66
2023-01-12T08:36:16.820Z,99168.69
2023-01-12T08:39:20.154Z,99167.50
2023-01-12T08:42:29.266Z,99167.23
2023-01-12T08:45:33.700Z,99165.27
2023-01-12T08:48:40.078Z,99165.38
2023-01-12T08:51:43.307Z,99166.37
2023-01-12T08:54:47.201Z,99169.90
2023-01-12T08:57:50.141Z,99166.85
2023-01-12T09:00:53.254Z,99166.46
2023-01-12T09:03:57.702Z,99168.58
2023-01-12T09:07:00.521Z,99164.41
2023-01-12T09:10:06.059Z,99159.08
2023-01-12T09:13:10.112Z,99153.30
2023-01-12T09:16:14.696Z,99155.14
2023-01-12T09:19:18.176Z,99154.92
2023-01-12T09:22:20.991Z,99153.23
2023-01-12T09:25:26.147Z,99143.27
2023-01-12T09:28:28.876Z,99137.77
2023-01-12T09:31:33.129Z,99139.39
2023-01-12T09:34:36.043Z,99142.16
2023-01-12T09:37:40.544Z,99138.23
2023-01-12T09:40:44.411Z,99140.56
2023-01-12T09:44:05.675Z,99131.89
2023-01-12T09:47:30.608Z,99129.57
2023-01-12T09:50:42.529Z,99131.40
2023-01-12T09:53:47.427Z,99123.69
2023-01-12T09:57:02.072Z,99118.12
2023-01-12T10:00:23.710Z,99108.98
2023-01-12T10:03:35.799Z,99110.08
2023-01-12T10:06:39.623Z,99113.74
2023-01-12T10:09:43.120Z,99104.22
2023-01-12T10:12:52.105Z,99103.52
2023-01-12T10:16:05.503Z,99093.48
2023-01-12T10:19:27.820Z,99088.52
2023-01-12T10:22:40.852Z,99082.79
2023-01-12T10:26:02.968Z,99079.63
2023-01-12T10:29:08.506Z,99086.16
2023-01-12T10:32:12.584Z,99086.66
2023-01-12T10:35:19.078Z,99087.13
2023-01-12T10:42:40.964Z,99079.34
2023-01-12T10:45:43.873Z,99074.45
2023-01-12T10:48:51.557Z,99070.46
2023-01-12T10:52:00.394Z,99066.59
2023-01-12T10:55:03.234Z,99061.23
2023-01-12T10:58:21.769Z,99059.64
2023-01-12T11:01:24.947Z,99064.84
2023-01-12T11:04:29.512Z,99063.29
2023-01-12T11:07:33.401Z,99056.77
2023-01-12T11:10:37.451Z,99056.27
2023-01-12T11:13:40.307Z,99049.65
2023-01-12T11:16:51.636Z,99044.31
2023-01-12T11:19:56.660Z,99035.61
2023-01-12T11:23:03.992Z,99029.55
2023-01-12T11:26:21.098Z,99025.22
2023-01-12T11:29:54.498Z,99021.29
2023-01-12T11:33:17.283Z,99019.52
2023-01-12T11:36:31.600Z,99021.24
2023-01-12T11:39:35.559Z,99017.26
2023-01-12T11:42:57.131Z,99018.06
2023-01-12T11:46:27.464Z,99016.48
2023-01-12T11:49:44.298Z,99013.71
2023-01-12T11:52:49.465Z,99014.04
2023-01-12T11:56:14.188Z,99006.80
2023-01-12T12:00:14.330Z,99009.14
2023-01-12T12:03:44.603Z,99004.91
2023-01-12T12:06:47.266Z,98997.98
2023-01-12T12:10:10.663Z,98995.14
2023-01-12T12:13:32.163Z,98990.05
2023-01-12T12:16:43.840Z,98984.59
2023-01-12T12:19:55.481Z,98982.12
2023-01-12T12:23:24.656Z,98979.93
2023-01-12T12:26:39.867Z,98978.60
2023-01-12T12:30:09.129Z,98975.08
2023-01-12T12:33:45.924Z,98973.52
2023-01-12T12:37:21.088Z,98969.66
2023-01-12T12:41:05.780Z,98966.38
2023-01-12T12:44:58.640Z,98963.98
2023-01-12T12:48:12.137Z,98967.16
2023-01-12T12:51:16.019Z,98961.98
2023-01-12T12:54:21.512Z,98953.36
2023-01-12T12:57:25.248Z,98954.58
2023-01-12T13:00:42.612Z,98953.94
2023-01-12T13:03:50.764Z,98947.89
2023-01-12T13:06:53.906Z,98940.80
2023-01-12T13:10:27.729Z,98941.26
2023-01-12T13:13:34.872Z,98936.54
2023-01-12T13:16:37.596Z,98932.08
2023-01-12T13:19:43.647Z,98927.90
2023-01-12T13:22:49.358Z,98932.44
2023-01-12T13:25:56.862Z,98928.19
2023-01-12T13:29:39.766Z,98925.65
2023-01-12T13:32:49.800Z,98928.79
2023-01-12T13:35:52.557Z,98930.69
2023-01-12T13:39:06.291Z,98930.23
2023-01-12T13:42:36.748Z,98930.80
2023-01-12T13:45:39.764Z,98934.69
2023-01-12T13:48:45.964Z,98928.02
2023-01-12T13:51:56.567Z,98925.65
2023-01-12T13:55:00.122Z,98928.19
2023-01-12T13:58:17.442Z,98927.45
2023-01-12T14:01:36.201Z,98923.80
2023-01-12T14:04:57.899Z,98920.09
2023-01-12T14:08:22.767Z,98918.87
2023-01-12T14:11:50.651Z,98918.71
2023-01-12T14:15:43.316Z,98916.23
2023-01-12T14:18:49.485Z,98904.05
2023-01-12T14:21:57.908Z,98900.22
2023-01-12T14:25:14.591Z,98894.37
2023-01-12T14:28:23.273Z,98902.13
2023-01-12T14:31:44.582Z,98902.94
2023-01-12T14:34:52.352Z,98897.98
2023-01-12T14:37:59.345Z,98901.89
2023-01-12T14:41:27.143Z,98900.95
2023-01-12T14:44:48.952Z,98900.65
2023-01-12T14:47:51.741Z,98897.91
2023-01-12T14:51:17.770Z,98896.48
2023-01-12T14:54:29.584Z,98896.10
2023-01-12T14:57:35.064Z,98897.08
2023-01-12T15:00:43.597Z,98897.88
2023-01-12T15:03:48.595Z,98891.91
2023-01-12T15:07:04.581Z,98888.52
2023-01-12T15:10:10.350Z,98890.39
2023-01-12T15:13:26.451Z,98878.44
2023-01-12T15:16:47.679Z,98876.64
2023-01-12T15:20:09.130Z,98875.45
2023-01-12T15:23:31.175Z,98877.98
2023-01-12T15:26:34.471Z,98877.91
2023-01-12T15:29:37.532Z,98878.26
2023-01-12T15:32:47.834Z,98878.10
2023-01-12T15:35:51.280Z,98880.06
2023-01-12T15:38:54.569Z,98877.80
2023-01-12T15:42:15.865Z,98869.79
2023-01-12T15:45:32.006Z,98875.50
2023-01-12T15:48:34.801Z,98873.55
2023-01-12T15:51:37.575Z,98875.40
2023-01-12T15:54:41.065Z,98872.63
2023-01-12T15:57:44.139Z,98872.27
2023-01-12T16:00:47.409Z,98867.42
2023-01-12T16:04:15.037Z,98865.71
2023-01-12T16:07:12.888Z,98861.42
2023-01-12T16:10:17.005Z,98860.08
2023-01-12T16:13:19.734Z,98860.90
2023-01-12T16:16:22.558Z,98865.46
2023-01-12T16:19:26.400Z,98867.48
2023-01-12T16:22:29.433Z,98865.77
2023-01-12T16:25:32.273Z,98862.19
2023-01-12T16:28:35.929Z,98861.58
2023-01-12T16:31:39.425Z,98862.46
2023-01-12T16:34:42.619Z,98858.77
2023-01-12T16:37:45.449Z,98858.05
2023-01-12T16:40:50.743Z,98854.35
2023-01-12T16:43:54.643Z,98854.62
2023-01-12T16:46:57.483Z,98850.23
2023-01-12T16:50:00.558Z,98854.63
2023-01-12T16:53:03.453Z,98855.18
2023-01-12T16:56:10.138Z,98852.78
2023-01-12T16:59:13.079Z,98851.30
2023-01-12T17:02:17.227Z,98845.76
2023-01-12T17:05:20.519Z,98847.73
2023-01-12T17:08:23.575Z,98845.70
2023-01-12T17:11:27.781Z,98842.39
2023-01-12T17:14:33.738Z,98839.40
2023-01-12T17:17:37.306Z,98833.80
2023-01-12T17:20:40.493Z,98827.60
2023-01-12T17:23:44.353Z,98828.53
2023-01-12T17:26:49.925Z,98826.75
2023-01-12T17:29:52.673Z,98826.42
2023-01-12T17:32:55.571Z,98825.30
2023-01-12T17:36:02.506Z,98830.80
2023-01-12T17:39:05.430Z,98822.80
2023-01-12T17:42:29.370Z,98827.17
2023-01-12T17:45:33.287Z,98827.03
2023-01-12T17:48:36.060Z,98824.70
2023-01-12T17:51:40.421Z,98822.48
2023-01-12T17:54:43.184Z,98819.10
2023-01-12T17:57:45.909Z,98821.11
2023-01-12T18:00:48.757Z,98815.23
2023-01-12T18:03:52.237Z,98814.64
2023-01-12T18:06:55.083Z,98816.27
2023-01-12T18:09:57.838Z,98816.11
2023-01-12T18:13:00.603Z,98820.77
2023-01-12T18:16:03.962Z,98817.17
2023-01-12T18:19:10.257Z,98810.86
2023-01-12T18:22:13.204Z,98810.05
2023-01-12T18:25:16.759Z,98805.84
2023-01-12T18:28:19.773Z,98805.56
2023-01-12T18:31:25.337Z,98803.10
2023-01-12T18:34:29.180Z,98801.45
2023-01-12T18:37:32.021Z,98799.23
2023-01-12T18:40:34.805Z,98797.63
2023-01-12T18:43:38.712Z,98796.90
2023-01-12T18:47:05.705Z,98791.39
2023-01-12T18:50:47.452Z,98788.79
2023-01-12T18:53:50.346Z,98781.27
2023-01-12T18:56:53.268Z,98780.40
2023-01-12T19:00:18.090Z,98782.96
2023-01-12T19:03:21.126Z,98785.13
2023-01-12T19:06:28.631Z,98784.31
2023-01-12T19:09:38.195Z,98780.51
2023-01-12T19:12:45.713Z,98777.20
2023-01-12T19:16:06.896Z,98773.45
2023-01-12T19:19:10.754Z,98773.45
2023-01-12T19:22:32.219Z,98776.92
2023-01-12T19:25:53.995Z,98775.02
2023-01-12T19:28:56.740Z,98775.41
2023-01-12T19:31:59.521Z,98778.49
2023-01-12T19:35:10.946Z,98773.64
2023-01-12T19:38:15.035Z,98774.02
2023-01-12T19:41:41.127Z,98775.23
2023-01-12T19:44:45.018Z,98775.77
2023-01-12T19:47:48.717Z,98779.02
2023-01-12T19:50:53.438Z,98772.35
2023-01-12T19:53:56.187Z,98770.13
2023-01-12T19:56:58.971Z,98770.94
2023-01-12T20:00:02.796Z,98771.25
2023-01-12T20:03:20.949Z,98777.33
2023-01-12T20:06:25.245Z,98773.67
2023-01-12T20:09:28.021Z,98773.02
2023-01-12T20:12:30.909Z,98770.65
2023-01-12T20:15:34.164Z,98768.59
2023-01-12T20:18:37.383Z,98767.77
2023-01-12T20:21:42.882Z,98773.26
2023-01-12T20:24:48.184Z,98768.66
2023-01-12T20:27:52.095Z,98774.01
2023-01-12T20:30:54.905Z,98773.08
2023-01-12T20:33:57.675Z,98774.48
2023-01-12T20:37:00.478Z,98767.54
2023-01-12T20:40:04.529Z,98762.30
2023-01-12T20:43:07.346Z,98757.63
2023-01-12T20:49:29.703Z,98756.59
2023-01-12T20:52:34.726Z,98756.85
2023-01-12T20:55:46.794Z,98754.84
2023-01-12T20:58:49.515Z,98760.66
2023-01-12T21:01:52.569Z,98762.27
2023-01-12T21:04:55.545Z,98764.81
2023-01-12T21:08:07.446Z,98767.31
2023-01-12T21:11:13.538Z,98762.73
2023-01-12T21:14:16.331Z,98762.72
2023-01-12T21:17:21.275Z,98763.05
2023-01-12T21:20:24.264Z,98766.98
2023-01-12T21:23:27.795Z,98770.17
2023-01-12T21:26:30.789Z,98771.92
2023-01-12T21:29:34.169Z,98766.59
2023-01-12T21:32:36.963Z,98759.52
2023-01-12T21:35:40.351Z,98758.60
2023-01-12T21:38:43.135Z,98756.98
2023-01-12T21:42:04.464Z,98758.19
2023-01-12T21:45:07.886Z,98761.23
2023-01-12T21:48:12.122Z,98755.58
2023-01-12T21:51:16.999Z,98753.23
2023-01-12T21:54:19.854Z,98748.45
2023-01-12T21:57:22.709Z,98741.05
2023-01-12T22:00:25.903Z,98742.91
2023-01-12T22:03:29.133Z,98741.93
2023-01-12T22:06:32.212Z,98737.17
2023-01-12T22:09:34.920Z,98732.67
2023-01-12T22:12:37.678Z,98734.41
2023-01-12T22:15:41.098Z,98728.42
2023-01-12T22:18:47.208Z,98727.06
2023-01-12T22:21:50.220Z,98728.38
2023-01-12T22:24:52.934Z,98731.73
2023-01-12T22:27:56.533Z,98725.60
2023-01-12T22:30:59.871Z,98725.02
2023-01-12T22:34:03.989Z,98722.08
2023-01-12T22:37:07.110Z,98720.17
2023-01-12T22:40:11.439Z,98717.66
2023-01-12T22:43:26.236Z,98712.98
2023-01-12T22:46:29.151Z,98710.80
2023-01-12T22:49:35.494Z,98709.60
2023-01-12T22:52:39.263Z,98714.40
2023-01-12T22:55:42.293Z,98714.77
2023-01-12T22:58:50.435Z,98713.71
2023-01-12T23:01:53.549Z,98712.63
2023-01-12T23:04:56.283Z,98708.21
2023-01-12T23:07:59.827Z,98705.98
2023-01-12T23:11:12.180Z,98706.13
2023-01-12T23:14:14.950Z,98704.92
2023-01-12T23:17:17.656Z,98708.67
2023-01-12T23:20:20.427Z,98711.10
2023-01-12T23:23:23.161Z,98709.80
2023-01-12T23:26:29.230Z,98701.91
2023-01-12T23:29:33.143Z,98705.17
2023-01-12T23:32:35.833Z,98707.46
2023-01-12T23:35:41.433Z,98709.76
2023-01-12T23:38:44.237Z,98713.38
2023-01-12T23:41:46.976Z,98717.31
2023-01-12T23:44:49.701Z,98716.81
2023-01-12T23:47:52.428Z,98717.31
2023-01-12T23:50:58.901Z,98715.45
2023-01-12T23:54:02.518Z,98723.83
2023-01-12T23:57:05.293Z,98725.19
